sensor_id;sensor_type;location;lat;lon;timestamp;pressure;altitude;pressure_sealevel;temperature;humidity
73429;BME280;61643;49.564;17.412;2022-12-24T00:00:13;97189.88;;;3.31;100.00
73429;BME280;61643;49.564;17.412;2022-12-24T00:02:38;97190.00;;;3.25;100.00
73429;BME280;61643;49.564;17.412;2022-12-24T00:05:04;97193.72;;;3.24;100.00
73429;BME280;61643;49.564;17.412;2022-12-24T00:07:30;97190.25;;;3.23;100.00
73429;BME280;61643;49.564;17.412;2022-12-24T00:09:55;97196.38;;;3.24;100.00
73429;BME280;61643;49.564;17.412;2022-12-24T00:12:21;97193.22;;;3.27;100.00
73429;BME280;61643;49.564;17.412;2022-12-24T00:14:46;97197.25;;;3.29;100.00
73429;BME280;61643;49.564;17.412;2022-12-24T00:17:12;97211.16;;;3.31;100.00
73429;BME280;61643;49.564;17.412;2022-12-24T00:19:37;97222.94;;;3.35;100.00
73429;BME280;61643;49.564;17.412;2022-12-24T00:22:02;97219.22;;;3.36;100.00
73429;BME280;61643;49.564;17.412;2022-12-24T00:24:28;97221.13;;;3.24;100.00
73429;BME280;61643;49.564;17.412;2022-12-24T00:26:53;97214.63;;;3.20;100.00
73429;BME280;61643;49.564;17.412;2022-12-24T00:29:19;97225.84;;;3.22;100.00
73429;BME280;61643;49.564;17.412;2022-12-24T00:31:44;97228.97;;;3.19;100.00
73429;BME280;61643;49.564;17.412;2022-12-24T00:34:09;97239.13;;;3.22;100.00
73429;BME280;61643;49.564;17.412;2022-12-24T00:36:35;97236.38;;;3.17;100.00
73429;BME280;61643;49.564;17.412;2022-12-24T00:39:00;97247.00;;;3.29;100.00
73429;BME280;61643;49.564;17.412;2022-12-24T00:41:25;97260.53;;;3.27;100.00
73429;BME280;61643;49.564;17.412;2022-12-24T00:46:20;97264.81;;;3.28;100.00
73429;BME280;61643;49.564;17.412;2022-12-24T00:48:46;97265.03;;;3.15;100.00
73429;BME280;61643;49.564;17.412;2022-12-24T00:51:11;97263.41;;;3.26;100.00
73429;BME280;61643;49.564;17.412;2022-12-24T00:53:37;97274.16;;;3.19;100.00
73429;BME280;61643;49.564;17.412;2022-12-24T00:56:02;97268.38;;;3.22;100.00
73429;BME280;61643;49.564;17.412;2022-12-24T00:58:28;97274.28;;;3.24;100.00
73429;BME280;61643;49.564;17.412;2022-12-24T01:00:53;97265.50;;;3.12;100.00
73429;BME280;61643;49.564;17.412;2022-12-24T01:03:18;97257.88;;;3.04;100.00
73429;BME280;61643;49.564;17.412;2022-12-24T01:05:44;97249.47;;;3.07;100.00
73429;BME280;61643;49.564;17.412;2022-12-24T01:08:09;97250.03;;;3.09;100.00
73429;BME280;61643;49.564;17.412;2022-12-24T01:10:34;97242.72;;;3.16;100.00
73429;BME280;61643;49.564;17.412;2022-12-24T01:13:01;97237.19;;;3.18;100.00
73429;BME280;61643;49.564;17.412;2022-12-24T01:15:27;97243.75;;;3.27;100.00
73429;BME280;61643;49.564;17.412;2022-12-24T01:17:52;97242.72;;;3.28;100.00
73429;BME280;61643;49.564;17.412;2022-12-24T01:20:18;97237.28;;;3.23;100.00
73429;BME280;61643;49.564;17.412;2022-12-24T01:22:44;97239.03;;;3.17;100.00
73429;BME280;61643;49.564;17.412;2022-12-24T01:25:09;97250.00;;;3.32;100.00
73429;BME280;61643;49.564;17.412;2022-12-24T01:27:35;97257.41;;;3.30;100.00
73429;BME280;61643;49.564;17.412;2022-12-24T01:30:00;97261.22;;;3.34;100.00
73429;BME280;61643;49.564;17.412;2022-12-24T01:32:26;97262.34;;;3.38;100.00
73429;BME280;61643;49.564;17.412;2022-12-24T01:34:51;97267.09;;;3.36;100.00
73429;BME280;61643;49.564;17.412;2022-12-24T01:37:16;97272.53;;;3.41;100.00
73429;BME280;61643;49.564;17.412;2022-12-24T01:39:42;97260.84;;;3.42;100.00
73429;BME280;61643;49.564;17.412;2022-12-24T01:42:16;97263.50;;;3.42;100.00
73429;BME280;61643;49.564;17.412;2022-12-24T01:45:40;97270.69;;;3.42;100.00
73429;BME280;61643;49.564;17.412;2022-12-24T01:48:24;97270.22;;;3.45;100.00
73429;BME280;61643;49.564;17.412;2022-12-24T01:50:57;97275.66;;;3.38;100.00
73429;BME280;61643;49.564;17.412;2022-12-24T01:53:23;97278.09;;;3.40;100.00
73429;BME280;61643;49.564;17.412;2022-12-24T01:55:50;97284.66;;;3.37;100.00
73429;BME280;61643;49.564;17.412;2022-12-24T01:58:18;97299.72;;;3.43;100.00
73429;BME280;61643;49.564;17.412;2022-12-24T02:00:45;97307.09;;;3.41;100.00
73429;BME280;61643;49.564;17.412;2022-12-24T02:03:11;97295.78;;;3.34;100.00
73429;BME280;61643;49.564;17.412;2022-12-24T02:05:50;97298.78;;;3.38;100.00
73429;BME280;61643;49.564;17.412;2022-12-24T02:08:16;97309.19;;;3.28;100.00
73429;BME280;61643;49.564;17.412;2022-12-24T02:10:42;97310.47;;;3.25;100.00
73429;BME280;61643;49.564;17.412;2022-12-24T02:13:08;97314.28;;;3.29;100.00
73429;BME280;61643;49.564;17.412;2022-12-24T02:18:36;97323.06;;;3.30;100.00
73429;BME280;61643;49.564;17.412;2022-12-24T02:32:43;97339.94;;;3.12;100.00
73429;BME280;61643;49.564;17.412;2022-12-24T02:35:20;97339.84;;;3.07;100.00
73429;BME280;61643;49.564;17.412;2022-12-24T02:37:58;97329.06;;;3.02;100.00
73429;BME280;61643;49.564;17.412;2022-12-24T02:40:37;97328.88;;;3.04;100.00
73429;BME280;61643;49.564;17.412;2022-12-24T02:43:10;97336.13;;;2.96;100.00
73429;BME280;61643;49.564;17.412;2022-12-24T02:45:39;97333.13;;;2.93;100.00
73429;BME280;61643;49.564;17.412;2022-12-24T02:48:07;97330.47;;;2.93;100.00
73429;BME280;61643;49.564;17.412;2022-12-24T02:50:34;97323.53;;;2.92;100.00
73429;BME280;61643;49.564;17.412;2022-12-24T02:52:59;97329.06;;;2.90;100.00
73429;BME280;61643;49.564;17.412;2022-12-24T02:58:51;97336.34;;;2.95;100.00
73429;BME280;61643;49.564;17.412;2022-12-24T03:04:27;97343.75;;;2.93;100.00
73429;BME280;61643;49.564;17.412;2022-12-24T03:07:32;97348.94;;;2.88;100.00
73429;BME280;61643;49.564;17.412;2022-12-24T03:12:35;97358.75;;;2.87;100.00
73429;BME280;61643;49.564;17.412;2022-12-24T03:15:04;97355.28;;;2.87;100.00
73429;BME280;61643;49.564;17.412;2022-12-24T03:17:33;97363.38;;;2.80;100.00
73429;BME280;61643;49.564;17.412;2022-12-24T03:20:02;97366.59;;;2.82;100.00
73429;BME280;61643;49.564;17.412;2022-12-24T03:22:29;97366.50;;;2.89;100.00
73429;BME280;61643;49.564;17.412;2022-12-24T03:24:55;97368.81;;;2.85;100.00
73429;BME280;61643;49.564;17.412;2022-12-24T03:27:21;97373.19;;;2.80;100.00
73429;BME280;61643;49.564;17.412;2022-12-24T03:29:49;97369.72;;;2.79;100.00
73429;BME280;61643;49.564;17.412;2022-12-24T03:32:22;97376.09;;;2.78;100.00
73429;BME280;61643;49.564;17.412;2022-12-24T03:34:48;97369.09;;;2.66;100.00
73429;BME280;61643;49.564;17.412;2022-12-24T03:37:13;97373.59;;;2.65;100.00
73429;BME280;61643;49.564;17.412;2022-12-24T03:39:39;97367.63;;;2.70;100.00
73429;BME280;61643;49.564;17.412;2022-12-24T03:42:04;97371.66;;;2.72;100.00
73429;BME280;61643;49.564;17.412;2022-12-24T03:44:29;97369.47;;;2.69;100.00
73429;BME280;61643;49.564;17.412;2022-12-24T03:46:55;97371.31;;;2.69;100.00
73429;BME280;61643;49.564;17.412;2022-12-24T03:49:20;97372.38;;;2.79;100.00
73429;BME280;61643;49.564;17.412;2022-12-24T03:51:45;97369.34;;;2.76;100.00
73429;BME280;61643;49.564;17.412;2022-12-24T03:54:11;97366.69;;;2.76;100.00
73429;BME280;61643;49.564;17.412;2022-12-24T03:56:36;97367.41;;;2.71;100.00
73429;BME280;61643;49.564;17.412;2022-12-24T03:59:01;97365.00;;;2.81;100.00
73429;BME280;61643;49.564;17.412;2022-12-24T04:01:27;97370.84;;;2.72;100.00
73429;BME280;61643;49.564;17.412;2022-12-24T04:03:53;97374.66;;;2.76;100.00
73429;BME280;61643;49.564;17.412;2022-12-24T04:06:18;97372.00;;;2.76;100.00
73429;BME280;61643;49.564;17.412;2022-12-24T04:08:44;97368.97;;;2.61;100.00
73429;BME280;61643;49.564;17.412;2022-12-24T04:11:11;97375.72;;;2.75;100.00
73429;BME280;61643;49.564;17.412;2022-12-24T04:13:37;97386.22;;;2.70;100.00
73429;BME280;61643;49.564;17.412;2022-12-24T04:16:08;97385.53;;;2.74;100.00
73429;BME280;61643;49.564;17.412;2022-12-24T04:18:35;97389.47;;;2.83;100.00
73429;BME280;61643;49.564;17.412;2022-12-24T04:21:01;97394.81;;;2.95;100.00
73429;BME280;61643;49.564;17.412;2022-12-24T04:23:29;97409.41;;;3.04;100.00
73429;BME280;61643;49.564;17.412;2022-12-24T04:25:58;97407.66;;;2.98;100.00
73429;BME280;61643;49.564;17.412;2022-12-24T04:28:23;97399.81;;;3.03;100.00
73429;BME280;61643;49.564;17.412;2022-12-24T04:30:48;97406.72;;;3.04;100.00
73429;BME280;61643;49.564;17.412;2022-12-24T04:33:14;97399.34;;;3.06;100.00
73429;BME280;61643;49.564;17.412;2022-12-24T04:35:40;97404.69;;;3.06;100.00
73429;BME280;61643;49.564;17.412;2022-12-24T04:38:07;97404.44;;;3.08;100.00
73429;BME280;61643;49.564;17.412;2022-12-24T04:40:32;97401.88;;;3.01;100.00
73429;BME280;61643;49.564;17.412;2022-12-24T04:42:58;97404.97;;;2.86;100.00
73429;BME280;61643;49.564;17.412;2022-12-24T04:45:23;97406.03;;;2.85;100.00
73429;BME280;61643;49.564;17.412;2022-12-24T04:47:48;97420.44;;;2.78;100.00
73429;BME280;61643;49.564;17.412;2022-12-24T04:50:14;97427.63;;;2.89;100.00
73429;BME280;61643;49.564;17.412;2022-12-24T04:52:39;97432.03;;;2.95;100.00
73429;BME280;61643;49.564;17.412;2022-12-24T04:55:05;97434.25;;;2.98;100.00
73429;BME280;61643;49.564;17.412;2022-12-24T04:57:31;97445.69;;;2.98;100.00
73429;BME280;61643;49.564;17.412;2022-12-24T04:59:58;97443.84;;;2.99;100.00
73429;BME280;61643;49.564;17.412;2022-12-24T05:02:24;97435.19;;;3.04;100.00
73429;BME280;61643;49.564;17.412;2022-12-24T05:04:49;97432.06;;;3.07;100.00
73429;BME280;61643;49.564;17.412;2022-12-24T05:07:15;97446.75;;;3.09;100.00
73429;BME280;61643;49.564;17.412;2022-12-24T05:09:40;97438.97;;;3.08;100.00
73429;BME280;61643;49.564;17.412;2022-12-24T05:12:05;97451.25;;;3.09;100.00
73429;BME280;61643;49.564;17.412;2022-12-24T05:14:31;97453.81;;;3.15;100.00
73429;BME280;61643;49.564;17.412;2022-12-24T05:16:56;97454.16;;;3.07;100.00
73429;BME280;61643;49.564;17.412;2022-12-24T05:19:22;97459.81;;;3.11;100.00
73429;BME280;61643;49.564;17.412;2022-12-24T05:21:47;97463.88;;;3.13;100.00
73429;BME280;61643;49.564;17.412;2022-12-24T05:24:32;97452.88;;;3.10;100.00
73429;BME280;61643;49.564;17.412;2022-12-24T05:27:18;97463.06;;;3.13;100.00
73429;BME280;61643;49.564;17.412;2022-12-24T05:29:44;97459.56;;;3.12;100.00
73429;BME280;61643;49.564;17.412;2022-12-24T05:32:09;97463.44;;;2.86;100.00
73429;BME280;61643;49.564;17.412;2022-12-24T05:34:34;97467.41;;;2.95;100.00
73429;BME280;61643;49.564;17.412;2022-12-24T05:37:00;97462.56;;;3.04;100.00
73429;BME280;61643;49.564;17.412;2022-12-24T05:39:25;97472.81;;;2.89;100.00
73429;BME280;61643;49.564;17.412;2022-12-24T05:41:50;97477.94;;;3.02;100.00
73429;BME280;61643;49.564;17.412;2022-12-24T05:44:16;97485.91;;;3.02;100.00
73429;BME280;61643;49.564;17.412;2022-12-24T05:46:41;97484.75;;;2.98;100.00
73429;BME280;61643;49.564;17.412;2022-12-24T05:49:07;97481.47;;;2.84;100.00
73429;BME280;61643;49.564;17.412;2022-12-24T05:51:33;97474.75;;;2.82;100.00
73429;BME280;61643;49.564;17.412;2022-12-24T05:53:58;97478.34;;;2.87;100.00
73429;BME280;61643;49.564;17.412;2022-12-24T05:56:24;97481.38;;;2.91;100.00
73429;BME280;61643;49.564;17.412;2022-12-24T05:58:51;97478.84;;;2.96;100.00
73429;BME280;61643;49.564;17.412;2022-12-24T06:01:18;97480.69;;;2.95;100.00
73429;BME280;61643;49.564;17.412;2022-12-24T06:03:44;97478.34;;;2.87;100.00
73429;BME280;61643;49.564;17.412;2022-12-24T06:06:12;97487.13;;;2.88;100.00
73429;BME280;61643;49.564;17.412;2022-12-24T06:08:39;97479.97;;;2.88;100.00
73429;BME280;61643;49.564;17.412;2022-12-24T06:11:07;97484.94;;;2.85;100.00
73429;BME280;61643;49.564;17.412;2022-12-24T06:13:33;97498.34;;;2.90;100.00
73429;BME280;61643;49.564;17.412;2022-12-24T06:16:04;97501.19;;;2.77;100.00
73429;BME280;61643;49.564;17.412;2022-12-24T06:18:31;97514.25;;;2.78;100.00
73429;BME280;61643;49.564;17.412;2022-12-24T06:20:58;97510.88;;;2.71;100.00
73429;BME280;61643;49.564;17.412;2022-12-24T06:23:24;97511.91;;;2.70;100.00
73429;BME280;61643;49.564;17.412;2022-12-24T06:25:50;97524.22;;;2.65;100.00
73429;BME280;61643;49.564;17.412;2022-12-24T06:28:16;97522.53;;;2.70;100.00
73429;BME280;61643;49.564;17.412;2022-12-24T06:30:46;97517.31;;;2.64;100.00
73429;BME280;61643;49.564;17.412;2022-12-24T06:33:12;97526.00;;;2.71;100.00
73429;BME280;61643;49.564;17.412;2022-12-24T06:35:37;97537.19;;;2.73;100.00
73429;BME280;61643;49.564;17.412;2022-12-24T06:38:02;97532.63;;;2.62;100.00
73429;BME280;61643;49.564;17.412;2022-12-24T06:40:28;97540.59;;;2.62;100.00
73429;BME280;61643;49.564;17.412;2022-12-24T06:42:53;97540.59;;;2.62;100.00
73429;BME280;61643;49.564;17.412;2022-12-24T06:45:19;97560.19;;;2.67;100.00
73429;BME280;61643;49.564;17.412;2022-12-24T06:47:44;97557.88;;;2.71;100.00
73429;BME280;61643;49.564;17.412;2022-12-24T06:50:10;97548.72;;;2.67;100.00
73429;BME280;61643;49.564;17.412;2022-12-24T06:52:35;97564.13;;;2.76;100.00
73429;BME280;61643;49.564;17.412;2022-12-24T06:55:01;97571.09;;;2.77;100.00
73429;BME280;61643;49.564;17.412;2022-12-24T06:57:27;97570.28;;;2.77;100.00
73429;BME280;61643;49.564;17.412;2022-12-24T06:59:52;97570.72;;;2.74;100.00
73429;BME280;61643;49.564;17.412;2022-12-24T07:02:18;97564.66;;;2.85;100.00
73429;BME280;61643;49.564;17.412;2022-12-24T07:04:43;97566.78;;;2.76;100.00
73429;BME280;61643;49.564;17.412;2022-12-24T07:07:08;97567.97;;;2.80;100.00
73429;BME280;61643;49.564;17.412;2022-12-24T07:09:34;97581.34;;;2.74;100.00
73429;BME280;61643;49.564;17.412;2022-12-24T07:11:59;97578.09;;;2.72;100.00
73429;BME280;61643;49.564;17.412;2022-12-24T07:14:24;97575.88;;;2.69;100.00
73429;BME280;61643;49.564;17.412;2022-12-24T07:16:50;97581.19;;;2.69;100.00
73429;BME280;61643;49.564;17.412;2022-12-24T07:19:17;97589.31;;;2.74;100.00
73429;BME280;61643;49.564;17.412;2022-12-24T07:21:42;97587.94;;;2.71;100.00
73429;BME280;61643;49.564;17.412;2022-12-24T07:24:07;97582.66;;;2.65;100.00
73429;BME280;61643;49.564;17.412;2022-12-24T07:26:33;97578.44;;;2.57;100.00
73429;BME280;61643;49.564;17.412;2022-12-24T07:28:58;97584.22;;;2.54;100.00
73429;BME280;61643;49.564;17.412;2022-12-24T07:31:24;97587.59;;;2.61;100.00
73429;BME280;61643;49.564;17.412;2022-12-24T07:33:49;97583.72;;;2.64;100.00
73429;BME280;61643;49.564;17.412;2022-12-24T07:36:18;97593.72;;;2.62;100.00
73429;BME280;61643;49.564;17.412;2022-12-24T07:38:46;97587.97;;;2.46;100.00
73429;BME280;61643;49.564;17.412;2022-12-24T07:41:12;97597.47;;;2.36;100.00
73429;BME280;61643;49.564;17.412;2022-12-24T07:43:37;97596.91;;;2.34;100.00
73429;BME280;61643;49.564;17.412;2022-12-24T07:46:03;97611.38;;;2.38;100.00
73429;BME280;61643;49.564;17.412;2022-12-24T07:48:30;97611.88;;;2.46;100.00
73429;BME280;61643;49.564;17.412;2022-12-24T07:50:56;97619.13;;;2.58;100.00
73429;BME280;61643;49.564;17.412;2022-12-24T07:53:21;97617.88;;;2.60;100.00
73429;BME280;61643;49.564;17.412;2022-12-24T07:55:47;97635.50;;;2.73;100.00
73429;BME280;61643;49.564;17.412;2022-12-24T07:58:13;97628.19;;;2.68;100.00
73429;BME280;61643;49.564;17.412;2022-12-24T08:00:38;97642.53;;;2.67;100.00
73429;BME280;61643;49.564;17.412;2022-12-24T08:03:04;97646.41;;;2.65;100.00
73429;BME280;61643;49.564;17.412;2022-12-24T08:05:33;97653.91;;;2.74;100.00
73429;BME280;61643;49.564;17.412;2022-12-24T08:07:59;97664.59;;;2.86;100.00
73429;BME280;61643;49.564;17.412;2022-12-24T08:10:25;97661.19;;;2.79;100.00
73429;BME280;61643;49.564;17.412;2022-12-24T08:12:50;97670.88;;;2.91;100.00
73429;BME280;61643;49.564;17.412;2022-12-24T08:15:16;97670.06;;;3.09;100.00
73429;BME280;61643;49.564;17.412;2022-12-24T08:17:41;97670.50;;;3.06;100.00
73429;BME280;61643;49.564;17.412;2022-12-24T08:20:07;97678.47;;;3.24;100.00
73429;BME280;61643;49.564;17.412;2022-12-24T08:22:33;97674.56;;;3.27;100.00
73429;BME280;61643;49.564;17.412;2022-12-24T08:24:58;97676.69;;;3.36;100.00
73429;BME280;61643;49.564;17.412;2022-12-24T08:27:23;97673.81;;;3.38;100.00
73429;BME280;61643;49.564;17.412;2022-12-24T08:29:49;97677.44;;;3.43;100.00
73429;BME280;61643;49.564;17.412;2022-12-24T08:32:14;97684.66;;;3.36;100.00
73429;BME280;61643;49.564;17.412;2022-12-24T08:34:39;97690.84;;;3.48;100.00
73429;BME280;61643;49.564;17.412;2022-12-24T08:37:05;97694.78;;;3.46;100.00
73429;BME280;61643;49.564;17.412;2022-12-24T08:39:30;97688.47;;;3.59;100.00
73429;BME280;61643;49.564;17.412;2022-12-24T08:41:56;97691.06;;;3.65;100.00
73429;BME280;61643;49.564;17.412;2022-12-24T08:44:21;97689.78;;;3.68;100.00
73429;BME280;61643;49.564;17.412;2022-12-24T08:46:47;97693.75;;;3.77;100.00
73429;BME280;61643;49.564;17.412;2022-12-24T08:49:12;97701.41;;;3.85;100.00
73429;BME280;61643;49.564;17.412;2022-12-24T08:51:38;97704.69;;;3.87;100.00
73429;BME280;61643;49.564;17.412;2022-12-24T08:54:03;97706.63;;;3.91;100.00
73429;BME280;61643;49.564;17.412;2022-12-24T08:56:28;97701.78;;;3.88;100.00
73429;BME280;61643;49.564;17.412;2022-12-24T08:58:54;97704.78;;;3.92;100.00
73429;BME280;61643;49.564;17.412;2022-12-24T09:01:19;97699.47;;;3.92;100.00
73429;BME280;61643;49.564;17.412;2022-12-24T09:03:46;97708.28;;;3.92;100.00
73429;BME280;61643;49.564;17.412;2022-12-24T09:06:11;97706.75;;;3.85;100.00
73429;BME280;61643;49.564;17.412;2022-12-24T09:08:37;97715.75;;;3.84;100.00
73429;BME280;61643;49.564;17.412;2022-12-24T09:11:11;97722.50;;;3.86;100.00
73429;BME280;61643;49.564;17.412;2022-12-24T09:13:37;97712.88;;;3.85;100.00
73429;BME280;61643;49.564;17.412;2022-12-24T09:16:02;97708.00;;;3.82;100.00
73429;BME280;61643;49.564;17.412;2022-12-24T09:18:28;97715.75;;;3.84;100.00
73429;BME280;61643;49.564;17.412;2022-12-24T09:21:08;97716.56;;;3.84;100.00
73429;BME280;61643;49.564;17.412;2022-12-24T09:23:35;97718.66;;;3.82;100.00
73429;BME280;61643;49.564;17.412;2022-12-24T09:26:26;97723.63;;;3.79;100.00
73429;BME280;61643;49.564;17.412;2022-12-24T09:28:51;97728.84;;;3.85;100.00
73429;BME280;61643;49.564;17.412;2022-12-24T09:31:18;97734.75;;;3.87;100.00
73429;BME280;61643;49.564;17.412;2022-12-24T09:33:45;97738.59;;;3.91;100.00
73429;BME280;61643;49.564;17.412;2022-12-24T09:36:11;97740.94;;;4.00;100.00
73429;BME280;61643;49.564;17.412;2022-12-24T09:38:37;97746.16;;;4.06;100.00
73429;BME280;61643;49.564;17.412;2022-12-24T09:43:50;97739.03;;;4.18;100.00
73429;BME280;61643;49.564;17.412;2022-12-24T09:46:22;97742.63;;;4.24;100.00
73429;BME280;61643;49.564;17.412;2022-12-24T09:48:53;97741.13;;;4.28;100.00
73429;BME280;61643;49.564;17.412;2022-12-24T09:51:40;97732.69;;;4.31;100.00
73429;BME280;61643;49.564;17.412;2022-12-24T09:54:11;97742.56;;;4.30;100.00
73429;BME280;61643;49.564;17.412;2022-12-24T09:56:40;97742.09;;;4.33;100.00
73429;BME280;61643;49.564;17.412;2022-12-24T09:59:15;97742.97;;;4.27;100.00
73429;BME280;61643;49.564;17.412;2022-12-24T10:01:41;97741.75;;;4.30;100.00
73429;BME280;61643;49.564;17.412;2022-12-24T10:04:11;97741.28;;;4.33;100.00
73429;BME280;61643;49.564;17.412;2022-12-24T10:09:33;97759.69;;;4.34;100.00
73429;BME280;61643;49.564;17.412;2022-12-24T10:23:20;97759.56;;;5.06;100.00
73429;BME280;61643;49.564;17.412;2022-12-24T10:28:59;97767.03;;;5.32;100.00
73429;BME280;61643;49.564;17.412;2022-12-24T10:31:29;97775.03;;;5.43;100.00
73429;BME280;61643;49.564;17.412;2022-12-24T10:33:59;97781.19;;;5.44;100.00
73429;BME280;61643;49.564;17.412;2022-12-24T10:36:29;97788.84;;;5.52;100.00
73429;BME280;61643;49.564;17.412;2022-12-24T10:38:55;97780.72;;;5.47;100.00
73429;BME280;61643;49.564;17.412;2022-12-24T10:41:22;97787.09;;;5.58;100.00
73429;BME280;61643;49.564;17.412;2022-12-24T10:43:49;97791.94;;;5.61;100.00
73429;BME280;61643;49.564;17.412;2022-12-24T10:46:18;97803.22;;;5.63;100.00
73429;BME280;61643;49.564;17.412;2022-12-24T10:48:53;97792.41;;;5.58;100.00
73429;BME280;61643;49.564;17.412;2022-12-24T10:54:00;97811.72;;;5.48;100.00
73429;BME280;61643;49.564;17.412;2022-12-24T10:56:31;97816.50;;;5.46;100.00
73429;BME280;61643;49.564;17.412;2022-12-24T10:58:56;97815.66;;;5.45;100.00
73429;BME280;61643;49.564;17.412;2022-12-24T11:01:42;97822.25;;;5.43;100.00
73429;BME280;61643;49.564;17.412;2022-12-24T11:04:15;97824.03;;;5.37;100.00
73429;BME280;61643;49.564;17.412;2022-12-24T11:06:59;97834.56;;;5.32;100.00
73429;BME280;61643;49.564;17.412;2022-12-24T11:11:57;97847.47;;;5.24;100.00
73429;BME280;61643;49.564;17.412;2022-12-24T11:14:23;97854.06;;;5.21;100.00
73429;BME280;61643;49.564;17.412;2022-12-24T11:16:53;97856.63;;;5.16;100.00
73429;BME280;61643;49.564;17.412;2022-12-24T11:19:29;97853.59;;;5.13;100.00
73429;BME280;61643;49.564;17.412;2022-12-24T11:22:03;97859.50;;;5.15;100.00
73429;BME280;61643;49.564;17.412;2022-12-24T11:24:32;97867.50;;;5.15;100.00
73429;BME280;61643;49.564;17.412;2022-12-24T11:27:27;97869.34;;;5.14;100.00
73429;BME280;61643;49.564;17.412;2022-12-24T11:32:39;97879.81;;;5.16;100.00
73429;BME280;61643;49.564;17.412;2022-12-24T11:35:06;97888.28;;;5.13;100.00
73429;BME280;61643;49.564;17.412;2022-12-24T11:37:31;97885.25;;;5.09;100.00
73429;BME280;61643;49.564;17.412;2022-12-24T11:39:59;97901.97;;;5.16;100.00
73429;BME280;61643;49.564;17.412;2022-12-24T11:42:32;97904.63;;;5.16;100.00
73429;BME280;61643;49.564;17.412;2022-12-24T11:45:01;97907.06;;;5.18;100.00
73429;BME280;61643;49.564;17.412;2022-12-24T11:47:36;97905.00;;;5.20;100.00
73429;BME280;61643;49.564;17.412;2022-12-24T11:58:10;97901.84;;;5.23;100.00
73429;BME280;61643;49.564;17.412;2022-12-24T12:00:39;97901.03;;;5.22;100.00
73429;BME280;61643;49.564;17.412;2022-12-24T12:03:19;97905.81;;;5.20;100.00
73429;BME280;61643;49.564;17.412;2022-12-24T12:05:48;97907.88;;;5.18;100.00
73429;BME280;61643;49.564;17.412;2022-12-24T12:08:17;97913.00;;;5.20;100.00
73429;BME280;61643;49.564;17.412;2022-12-24T12:10:44;97914.28;;;5.17;100.00
73429;BME280;61643;49.564;17.412;2022-12-24T12:13:21;97921.69;;;5.15;100.00
73429;BME280;61643;49.564;17.412;2022-12-24T12:18:43;97921.31;;;5.12;100.00
73429;BME280;61643;49.564;17.412;2022-12-24T12:21:16;97920.97;;;5.08;100.00
73429;BME280;61643;49.564;17.412;2022-12-24T12:26:23;97931.06;;;5.06;100.00
73429;BME280;61643;49.564;17.412;2022-12-24T12:31:55;97937.91;;;5.02;100.00
73429;BME280;61643;49.564;17.412;2022-12-24T12:34:31;97939.97;;;5.00;100.00
73429;BME280;61643;49.564;17.412;2022-12-24T12:37:04;97947.16;;;5.00;100.00
73429;BME280;61643;49.564;17.412;2022-12-24T12:39:34;97955.84;;;4.95;100.00
73429;BME280;61643;49.564;17.412;2022-12-24T12:42:03;97961.84;;;4.90;99.81
73429;BME280;61643;49.564;17.412;2022-12-24T12:58:22;97990.94;;;4.92;100.00
73429;BME280;61643;49.564;17.412;2022-12-24T13:00:54;97994.38;;;4.99;100.00
73429;BME280;61643;49.564;17.412;2022-12-24T13:17:59;98005.47;;;4.96;100.00
73429;BME280;61643;49.564;17.412;2022-12-24T13:20:31;97999.44;;;5.01;100.00
73429;BME280;61643;49.564;17.412;2022-12-24T13:25:45;97996.00;;;5.12;100.00
73429;BME280;61643;49.564;17.412;2022-12-24T13:30:39;98001.50;;;5.17;100.00
73429;BME280;61643;49.564;17.412;2022-12-24T13:33:10;98006.59;;;5.18;100.00
73429;BME280;61643;49.564;17.412;2022-12-24T13:35:36;98018.44;;;5.22;100.00
73429;BME280;61643;49.564;17.412;2022-12-24T13:38:29;98024.94;;;5.26;100.00
73429;BME280;61643;49.564;17.412;2022-12-24T13:49:39;98013.78;;;5.18;100.00
73429;BME280;61643;49.564;17.412;2022-12-24T14:02:52;98031.50;;;5.12;100.00
73429;BME280;61643;49.564;17.412;2022-12-24T14:07:51;98026.31;;;5.17;100.00
73429;BME280;61643;49.564;17.412;2022-12-24T14:10:55;98044.13;;;5.35;100.00
73429;BME280;61643;49.564;17.412;2022-12-24T14:16:30;98044.50;;;5.38;100.00
73429;BME280;61643;49.564;17.412;2022-12-24T14:24:20;98064.09;;;5.44;98.62
73429;BME280;61643;49.564;17.412;2022-12-24T14:26:51;98067.47;;;5.51;97.80
73429;BME280;61643;49.564;17.412;2022-12-24T14:29:51;98067.47;;;5.51;97.71
73429;BME280;61643;49.564;17.412;2022-12-24T14:32:19;98062.81;;;5.46;98.18
73429;BME280;61643;49.564;17.412;2022-12-24T14:34:45;98067.13;;;5.47;97.10
73429;BME280;61643;49.564;17.412;2022-12-24T14:37:11;98066.19;;;5.42;97.20
73429;BME280;61643;49.564;17.412;2022-12-24T14:39:41;98070.47;;;5.31;98.26
73429;BME280;61643;49.564;17.412;2022-12-24T14:48:07;98083.75;;;5.20;99.69
73429;BME280;61643;49.564;17.412;2022-12-24T14:50:50;98090.66;;;5.09;99.53
73429;BME280;61643;49.564;17.412;2022-12-24T14:55:48;98098.66;;;4.91;100.00
73429;BME280;61643;49.564;17.412;2022-12-24T14:58:18;98095.03;;;4.85;99.62
73429;BME280;61643;49.564;17.412;2022-12-24T15:00:44;98104.28;;;4.83;99.81
73429;BME280;61643;49.564;17.412;2022-12-24T15:03:12;98099.88;;;4.77;96.89
73429;BME280;61643;49.564;17.412;2022-12-24T15:05:38;98112.38;;;4.76;97.02
73429;BME280;61643;49.564;17.412;2022-12-24T15:08:11;98116.31;;;4.74;96.18
73429;BME280;61643;49.564;17.412;2022-12-24T15:10:42;98127.28;;;4.84;94.83
73429;BME280;61643;49.564;17.412;2022-12-24T15:13:38;98126.00;;;4.86;96.01
73429;BME280;61643;49.564;17.412;2022-12-24T15:16:11;98118.22;;;4.85;95.90
73429;BME280;61643;49.564;17.412;2022-12-24T15:19:26;98126.91;;;4.80;96.78